logo
Search for airport 
image banner adimage banner adimage banner ad
image banner ad

SCGV - Punta Gaviota

Located in Caleta Chanaral De Aceituno, Chile

ICAO - SCGV, IATA -

Data provided by Airmate  

General information

Coordinates: S29°5'4" W71°28'2"
Elevation is 99 feet MSL.
Magnetic variation is 0° East
View others Airports in Atacama

Operational data

Special qualification required
Current time UTC:
Current local time:
Weather at : - ( 0 km )
METAR: PFSH 251656Z AUTO 22007KT 10SM FEW008 OVC030 16/14 A2989 RMK AO2 SLP121 T01610144
View NOTAMs / SUP AIP / TFR affecting this airport [VIEW]
Communications frequencies: [VIEW]

Runways:

RWY identifierQFULength (ft)Width (ft)SurfaceLDA (ft)
0438°182159DIRT
22218°182159DIRT

Airport contact information

Address: Caleta Chanaral De Aceituno Chile

Satellite view of SCGV